Time;durP1;ratioP1;P1;durP2;ratioP2;P2;SDS_P1;SDS_P2;PMS_P1;PMS_P2;Temp;Humidity;BMP_temperature;BMP_pressure;BME280_temperature;BME280_humidity;BME280_pressure;Samples;Min_cycle;Max_cycle;Signal;HPM_P1;HPM_P2
2024/04/24 00:01:18;;;;;;;3.20;1.10;;;18.20;49.60;;;;;;6453299;22;20547;-83
2024/04/24 00:03:46;;;;;;;3.15;1.45;;;18.30;49.60;;;;;;6453169;22;20222;-84
2024/04/24 00:06:12;;;;;;;1.70;1.10;;;18.30;49.70;;;;;;6495509;22;20238;-84
2024/04/24 00:08:38;;;;;;;1.65;1.30;;;18.20;49.60;;;;;;6452502;22;20222;-84
2024/04/24 00:11:05;;;;;;;1.13;1.02;;;18.20;49.40;;;;;;6495799;22;20564;-84
2024/04/24 00:13:31;;;;;;;1.50;1.20;;;18.20;49.60;;;;;;6453248;22;20238;-83
2024/04/24 00:16:01;;;;;;;1.70;1.20;;;18.20;49.40;;;;;;6453424;22;20249;-85
2024/04/24 00:18:27;;;;;;;2.33;1.42;;;18.20;49.50;;;;;;6451336;22;20222;-84
2024/04/24 00:20:55;;;;;;;2.72;1.20;;;18.20;49.60;;;;;;6493724;22;20324;-84
2024/04/24 00:23:28;;;;;;;2.25;1.00;;;18.30;49.40;;;;;;6451429;22;20225;-83
2024/04/24 00:25:59;;;;;;;1.52;1.00;;;18.20;49.40;;;;;;6451171;22;20315;-84
2024/04/24 00:28:28;;;;;;;1.40;1.10;;;18.20;49.40;;;;;;6409151;22;20264;-85
2024/04/24 00:31:00;;;;;;;1.10;1.00;;;18.30;49.40;;;;;;6451291;22;20222;-85
2024/04/24 00:33:33;;;;;;;1.88;1.33;;;18.20;49.40;;;;;;6453192;22;20246;-84
2024/04/24 00:36:06;;;;;;;1.67;1.30;;;18.20;49.40;;;;;;6451962;22;20226;-84
2024/04/24 00:38:34;;;;;;;1.50;1.30;;;18.20;49.60;;;;;;6450507;22;20266;-84
2024/04/24 00:41:11;;;;;;;1.67;1.00;;;18.20;49.60;;;;;;6451016;22;20770;-85
2024/04/24 00:43:37;;;;;;;2.13;1.02;;;18.30;49.50;;;;;;6451360;22;20230;-84
2024/04/24 00:46:03;;;;;;;2.10;0.93;;;18.20;49.50;;;;;;6452069;22;20274;-84
2024/04/24 00:48:30;;;;;;;1.48;1.17;;;18.10;49.50;;;;;;6453085;22;20254;-84
2024/04/24 00:50:58;;;;;;;1.75;1.30;;;18.20;49.60;;;;;;6453464;22;20226;-84
2024/04/24 00:53:24;;;;;;;1.75;1.10;;;18.20;49.60;;;;;;6455538;22;20262;-84
2024/04/24 00:55:54;;;;;;;1.70;1.48;;;18.20;49.60;;;;;;6496610;22;20654;-84
2024/04/24 00:58:26;;;;;;;1.30;1.20;;;18.20;49.80;;;;;;6497538;22;20515;-85
2024/04/24 01:00:57;;;;;;;1.90;1.40;;;18.20;49.60;;;;;;6497059;22;20256;-84
2024/04/24 01:03:23;;;;;;;2.25;1.20;;;18.10;49.70;;;;;;6457186;22;20218;-83
2024/04/24 01:05:51;;;;;;;1.20;1.10;;;18.20;49.80;;;;;;6454547;22;20253;-83
2024/04/24 01:08:17;;;;;;;1.27;1.17;;;18.10;49.70;;;;;;6496998;22;20218;-83
2024/04/24 01:10:44;;;;;;;2.20;1.42;;;18.10;49.70;;;;;;6496461;22;20218;-83
2024/04/24 01:13:13;;;;;;;1.77;1.10;;;18.10;49.50;;;;;;6454172;22;20775;-84
2024/04/24 01:15:46;;;;;;;1.02;0.93;;;18.20;49.80;;;;;;6454605;22;20218;-84
2024/04/24 01:18:15;;;;;;;4.05;1.40;;;18.10;49.70;;;;;;6539659;22;20285;-83
2024/04/24 01:20:46;;;;;;;1.63;1.20;;;18.20;49.70;;;;;;6497596;22;20287;-83
2024/04/24 01:23:48;;;;;;;3.30;1.20;;;18.10;49.80;;;;;;6497040;22;20225;-83
2024/04/24 01:26:26;;;;;;;1.30;1.20;;;18.10;49.80;;;;;;6503694;22;20240;-85
2024/04/24 01:28:56;;;;;;;1.40;1.30;;;18.10;49.80;;;;;;6458574;22;20311;-84
2024/04/24 01:31:21;;;;;;;1.35;1.20;;;18.10;49.70;;;;;;6371358;22;20222;-85
2024/04/24 01:33:53;;;;;;;1.80;1.15;;;18.10;49.80;;;;;;6455087;22;20303;-84
2024/04/24 01:36:27;;;;;;;2.03;1.35;;;18.20;49.90;;;;;;6497348;22;20230;-83
2024/04/24 01:38:57;;;;;;;1.10;1.00;;;18.10;49.70;;;;;;6371565;22;20249;-83
2024/04/24 01:41:31;;;;;;;1.63;1.30;;;18.10;49.60;;;;;;6497106;22;20248;-84
2024/04/24 01:44:06;;;;;;;1.85;1.20;;;18.10;49.80;;;;;;6457772;22;20218;-84
2024/04/24 01:46:35;;;;;;;1.30;1.20;;;18.10;49.90;;;;;;6497942;22;20233;-83
2024/04/24 01:49:05;;;;;;;1.48;1.23;;;18.10;49.70;;;;;;6498315;22;20653;-84
2024/04/24 01:51:34;;;;;;;1.10;1.00;;;18.20;49.70;;;;;;6455682;22;20752;-84
2024/04/24 01:54:01;;;;;;;2.75;1.00;;;18.20;49.90;;;;;;6540601;22;20248;-84
2024/04/24 01:56:33;;;;;;;1.73;1.40;;;18.10;49.70;;;;;;6455768;22;20222;-84
2024/04/24 01:59:08;;;;;;;1.27;1.17;;;18.10;49.80;;;;;;6413488;22;20241;-84
2024/04/24 02:01:39;;;;;;;1.50;1.13;;;18.10;49.80;;;;;;6413138;22;20564;-84
2024/04/24 02:04:05;;;;;;;1.30;1.20;;;18.10;49.90;;;;;;6455209;22;20230;-83
2024/04/24 02:06:31;;;;;;;1.35;1.25;;;18.10;50.00;;;;;;6455078;22;20245;-84
2024/04/24 02:09:02;;;;;;;2.70;1.30;;;18.10;49.80;;;;;;6497852;22;20218;-84
2024/04/24 02:11:28;;;;;;;1.90;1.50;;;18.10;49.70;;;;;;6497463;22;20222;-84
2024/04/24 02:13:54;;;;;;;1.60;1.30;;;18.10;49.80;;;;;;6455639;22;20245;-84
2024/04/24 02:16:27;;;;;;;2.28;1.25;;;18.10;49.80;;;;;;6455962;22;20249;-84
2024/04/24 02:18:59;;;;;;;1.73;1.13;;;18.10;49.60;;;;;;6497584;22;20226;-84
2024/04/24 02:21:38;;;;;;;1.60;1.20;;;18.10;49.70;;;;;;6455257;22;20241;-84
2024/04/24 02:24:08;;;;;;;1.77;1.33;;;18.20;49.70;;;;;;6540385;22;20214;-84
2024/04/24 02:26:33;;;;;;;1.85;1.10;;;18.10;49.70;;;;;;6456701;22;20257;-85
2024/04/24 02:28:59;;;;;;;1.27;1.10;;;18.10;49.80;;;;;;6455691;22;20222;-84
2024/04/24 02:31:36;;;;;;;2.40;1.13;;;18.10;49.90;;;;;;6455931;22;20248;-84
2024/04/24 02:34:04;;;;;;;1.33;1.15;;;18.10;49.70;;;;;;6455538;22;20222;-84
2024/04/24 02:36:32;;;;;;;2.42;1.40;;;18.00;49.90;;;;;;6497910;22;20222;-84
2024/04/24 02:39:10;;;;;;;2.13;1.23;;;18.10;50.00;;;;;;6457002;22;20250;-85
2024/04/24 02:41:40;;;;;;;1.42;1.27;;;18.10;49.90;;;;;;6497236;22;20223;-84
2024/04/24 02:44:06;;;;;;;1.80;1.02;;;18.10;49.90;;;;;;6371406;22;20261;-84
2024/04/24 02:46:41;;;;;;;1.45;1.20;;;18.00;49.80;;;;;;6455015;22;20230;-84
2024/04/24 02:49:14;;;;;;;1.70;1.38;;;18.10;49.80;;;;;;6411837;22;20260;-84
2024/04/24 02:51:42;;;;;;;3.40;1.40;;;18.10;49.80;;;;;;6498442;22;20218;-84
2024/04/24 02:54:14;;;;;;;1.20;1.10;;;18.10;49.80;;;;;;6456673;22;20257;-84
2024/04/24 02:56:44;;;;;;;1.73;1.20;;;18.10;49.90;;;;;;6497337;22;20261;-85
2024/04/24 02:59:22;;;;;;;1.30;1.20;;;18.00;49.90;;;;;;6411346;22;20285;-85
2024/04/24 03:01:48;;;;;;;1.73;1.20;;;18.10;49.80;;;;;;6538862;22;20222;-84
2024/04/24 03:04:16;;;;;;;1.33;1.10;;;18.00;50.00;;;;;;6498095;22;20213;-84
2024/04/24 03:06:47;;;;;;;3.35;1.30;;;18.00;49.90;;;;;;6455331;22;20324;-84
2024/04/24 03:09:17;;;;;;;1.45;1.25;;;18.10;49.80;;;;;;6411966;22;20219;-84
2024/04/24 03:11:48;;;;;;;1.90;1.17;;;18.00;50.00;;;;;;6496866;22;20222;-84
2024/04/24 03:14:18;;;;;;;1.65;1.40;;;18.00;49.90;;;;;;6353286;22;20224;-84
2024/04/24 03:16:47;;;;;;;1.65;1.00;;;18.00;49.80;;;;;;6353455;22;20224;-85
2024/04/24 03:19:13;;;;;;;1.30;1.20;;;18.00;50.00;;;;;;6353538;22;20223;-84
2024/04/24 03:21:40;;;;;;;1.60;1.25;;;18.00;50.10;;;;;;6353614;22;20251;-84
2024/04/24 03:24:07;;;;;;;1.52;1.13;;;18.00;50.00;;;;;;6354255;22;20223;-85
2024/04/24 03:26:37;;;;;;;1.58;1.33;;;18.00;50.20;;;;;;6353029;22;20240;-84
2024/04/24 03:29:04;;;;;;;1.08;0.93;;;17.90;50.00;;;;;;6272596;22;20228;-84
2024/04/24 03:31:38;;;;;;;3.28;1.52;;;18.00;50.10;;;;;;6354936;22;20288;-85
2024/04/24 03:34:10;;;;;;;1.30;1.20;;;18.00;50.00;;;;;;6355808;22;20220;-84
2024/04/24 03:36:43;;;;;;;1.58;1.48;;;18.00;50.00;;;;;;6357196;22;20224;-84
2024/04/24 03:39:29;;;;;;;1.23;1.13;;;18.00;50.00;;;;;;6316302;22;20224;-85
2024/04/24 03:41:55;;;;;;;1.77;1.08;;;18.00;50.10;;;;;;6362133;22;20275;-84
2024/04/24 03:44:27;;;;;;;1.83;1.00;;;18.00;49.90;;;;;;6357807;22;20246;-83
2024/04/24 03:46:59;;;;;;;1.40;1.30;;;18.10;50.00;;;;;;6356594;22;20236;-84
2024/04/24 03:49:28;;;;;;;2.08;1.30;;;18.00;49.80;;;;;;6316170;22;20223;-84
2024/04/24 03:51:54;;;;;;;1.88;1.25;;;18.10;49.90;;;;;;6358724;22;20220;-84
2024/04/24 03:54:22;;;;;;;1.30;1.20;;;18.10;50.00;;;;;;6356351;22;20296;-85
2024/04/24 03:56:48;;;;;;;1.83;1.30;;;18.10;50.00;;;;;;6357377;22;20262;-85
2024/04/24 03:59:14;;;;;;;1.88;1.42;;;18.00;49.90;;;;;;6459209;21;20221;-84
2024/04/24 04:01:41;;;;;;;2.47;1.20;;;18.00;49.90;;;;;;6462152;21;20221;-83
2024/04/24 04:04:08;;;;;;;1.63;1.40;;;18.00;49.90;;;;;;6462432;21;20243;-85
2024/04/24 04:06:34;;;;;;;1.42;1.10;;;18.00;49.90;;;;;;6504025;21;20236;-83
2024/04/24 04:09:02;;;;;;;1.88;1.42;;;18.00;50.00;;;;;;6462176;21;20221;-84
2024/04/24 04:11:29;;;;;;;2.65;1.30;;;18.00;49.90;;;;;;6463502;21;20222;-83
2024/04/24 04:14:00;;;;;;;1.60;1.50;;;18.00;49.90;;;;;;6462829;21;20664;-84
2024/04/24 04:16:29;;;;;;;1.58;1.33;;;18.00;50.10;;;;;;6463228;21;20221;-84
2024/04/24 04:19:00;;;;;;;1.20;1.10;;;18.00;50.00;;;;;;6504524;21;20310;-85
2024/04/24 04:21:26;;;;;;;1.77;1.48;;;18.00;50.10;;;;;;6505851;21;20248;-84
2024/04/24 04:23:58;;;;;;;1.77;1.40;;;18.00;50.00;;;;;;6464574;21;20217;-85
2024/04/24 04:26:26;;;;;;;1.40;1.23;;;18.00;50.10;;;;;;6505850;21;20310;-84
2024/04/24 04:28:59;;;;;;;1.77;1.10;;;18.00;50.20;;;;;;6462733;21;20217;-84
2024/04/24 04:31:34;;;;;;;2.10;1.40;;;18.10;50.00;;;;;;6462305;21;20225;-84
2024/04/24 04:34:01;;;;;;;1.55;1.42;;;18.00;50.10;;;;;;6380853;21;20636;-86
2024/04/24 04:36:35;;;;;;;1.13;1.02;;;17.90;50.10;;;;;;6463989;21;20221;-87
2024/04/24 04:39:05;;;;;;;1.50;1.10;;;17.90;50.20;;;;;;6421293;21;20288;-84
2024/04/24 04:41:37;;;;;;;1.77;1.30;;;17.90;50.10;;;;;;6380523;21;20248;-84
2024/04/24 04:44:11;;;;;;;1.40;1.20;;;17.90;50.10;;;;;;6378982;21;20217;-84
2024/04/24 04:46:38;;;;;;;1.98;1.05;;;17.90;50.00;;;;;;6370747;22;20542;-84
2024/04/24 04:49:09;;;;;;;1.83;1.52;;;18.00;50.00;;;;;;6370485;22;20222;-84
2024/04/24 04:51:37;;;;;;;1.30;1.20;;;18.00;50.00;;;;;;6455282;22;20297;-83
2024/04/24 04:54:05;;;;;;;1.83;1.30;;;17.90;50.10;;;;;;6455649;22;20261;-86
2024/04/24 04:56:31;;;;;;;2.13;1.40;;;17.90;50.00;;;;;;6454351;22;21098;-83
2024/04/24 04:59:09;;;;;;;1.67;1.20;;;18.00;50.00;;;;;;6499709;22;20214;-84
2024/04/24 05:01:36;;;;;;;1.75;1.23;;;18.00;50.00;;;;;;6354521;22;20250;-84
2024/04/24 05:04:02;;;;;;;1.25;1.15;;;18.00;50.00;;;;;;6309876;22;20232;-84
2024/04/24 05:06:31;;;;;;;1.40;1.30;;;17.90;50.10;;;;;;6308576;22;20230;-83
2024/04/24 05:08:58;;;;;;;3.03;1.30;;;17.90;50.30;;;;;;6309387;22;20225;-83
2024/04/24 05:11:25;;;;;;;1.40;1.30;;;17.90;50.30;;;;;;6306046;22;20632;-83
2024/04/24 05:13:59;;;;;;;2.15;1.50;;;17.80;50.30;;;;;;6347530;22;20252;-83
2024/04/24 05:16:29;;;;;;;1.60;1.50;;;17.80;50.40;;;;;;6347039;22;20257;-83
2024/04/24 05:18:59;;;;;;;3.42;1.33;;;17.90;50.30;;;;;;6288437;22;20272;-83
2024/04/24 05:21:43;;;;;;;1.65;1.38;;;17.90;50.40;;;;;;6212089;22;20219;-84
2024/04/24 05:24:11;;;;;;;1.45;1.20;;;17.90;50.30;;;;;;6212018;22;20227;-84
2024/04/24 05:29:15;;;;;;;1.80;1.30;;;17.90;50.20;;;;;;6219233;22;20266;-84
2024/04/24 05:31:51;;;;;;;1.83;1.35;;;17.90;50.20;;;;;;6211072;22;20258;-84
2024/04/24 05:34:24;;;;;;;2.42;1.30;;;18.00;50.10;;;;;;6250611;22;20227;-84
2024/04/24 05:36:51;;;;;;;1.25;1.15;;;17.90;50.20;;;;;;6290285;22;20783;-84
2024/04/24 05:39:18;;;;;;;1.85;1.40;;;17.90;50.20;;;;;;6289984;22;20711;-83
2024/04/24 05:41:45;;;;;;;1.42;1.30;;;18.00;50.20;;;;;;6292396;22;20227;-83
2024/04/24 05:44:11;;;;;;;2.00;1.50;;;18.00;50.20;;;;;;6292307;22;20227;-83
2024/04/24 05:46:38;;;;;;;2.67;1.60;;;18.00;50.20;;;;;;6322279;22;20393;-83
2024/04/24 05:49:07;;;;;;;1.75;1.20;;;18.00;50.10;;;;;;6224135;22;21093;-83
2024/04/24 05:51:41;;;;;;;5.45;1.50;;;18.00;50.20;;;;;;6305047;22;20225;-83
2024/04/24 05:54:10;;;;;;;1.40;1.20;;;17.90;50.10;;;;;;6308073;22;20300;-83
2024/04/24 05:56:38;;;;;;;1.38;1.15;;;17.90;50.40;;;;;;6349806;22;20301;-83
2024/04/24 05:59:14;;;;;;;1.65;1.30;;;17.90;50.50;;;;;;6311115;22;20221;-83
2024/04/24 06:01:47;;;;;;;1.30;1.20;;;17.90;50.30;;;;;;6317903;22;20309;-82
2024/04/24 06:04:22;;;;;;;1.73;1.23;;;17.90;50.40;;;;;;6450462;22;20258;-83
2024/04/24 06:06:52;;;;;;;2.20;1.38;;;17.90;50.20;;;;;;6295624;22;20273;-85
2024/04/24 06:09:28;;;;;;;1.40;1.30;;;18.00;50.30;;;;;;6253515;22;20333;-83
2024/04/24 06:12:05;;;;;;;1.30;1.15;;;17.90;50.30;;;;;;6297269;22;20285;-82
2024/04/24 06:14:48;;;;;;;1.75;1.30;;;18.00;50.10;;;;;;6251711;22;20230;-86
2024/04/24 06:17:49;;;;;;;1.73;1.40;;;17.90;50.20;;;;;;6259806;22;20312;-83
2024/04/24 06:20:18;;;;;;;3.72;1.15;;;18.00;50.00;;;;;;6336166;22;20219;-84
2024/04/24 07:38:55;;;;;;;4.05;1.40;;;18.70;48.60;;;;;;6657935;21;20315;-83
2024/04/24 07:42:05;;;;;;;2.90;1.08;;;18.70;48.70;;;;;;6456907;21;20225;-85
2024/04/24 07:45:09;;;;;;;;;;;;;;;;;;;;;
2024/04/24 07:47:35;;;;;;;2.78;1.17;;;18.70;49.10;;;;;;6304512;22;20230;-84
2024/04/24 07:50:01;;;;;;;1.50;1.20;;;18.70;49.10;;;;;;6284435;22;20707;-84
2024/04/24 07:52:28;;;;;;;1.95;1.30;;;18.60;49.30;;;;;;6285594;22;20265;-84
2024/04/24 07:54:54;;;;;;;1.27;1.15;;;18.70;49.00;;;;;;6285274;22;20688;-84
2024/04/24 07:57:20;;;;;;;1.67;1.10;;;18.70;49.10;;;;;;6327487;22;20218;-84
2024/04/24 07:59:48;;;;;;;4.18;1.20;;;18.70;49.20;;;;;;6289802;22;20252;-84
2024/04/24 08:02:18;;;;;;;4.25;1.23;;;18.70;49.00;;;;;;6250195;22;20226;-84
2024/04/24 08:04:46;;;;;;;2.70;1.40;;;18.80;48.70;;;;;;6292279;22;20245;-83
2024/04/24 08:07:15;;;;;;;1.98;1.20;;;18.80;48.70;;;;;;6289660;22;20247;-84
2024/04/24 08:09:44;;;;;;;2.03;1.13;;;18.80;48.60;;;;;;6250970;22;20226;-84
2024/04/24 08:12:19;;;;;;;3.33;1.08;;;18.80;48.50;;;;;;6247732;22;20259;-84
2024/04/24 08:14:57;;;;;;;2.33;1.27;;;18.90;48.60;;;;;;6412552;21;20636;-84
2024/04/24 08:17:37;;;;;;;2.17;1.23;;;18.80;49.00;;;;;;6508951;21;20264;-85
2024/04/24 08:20:11;;;;;;;4.28;1.52;;;18.80;48.90;;;;;;6392957;22;20295;-84
2024/04/24 08:22:46;;;;;;;4.53;1.23;;;18.80;49.20;;;;;;6318315;22;20224;-84
2024/04/24 08:25:12;;;;;;;4.22;1.00;;;18.80;49.90;;;;;;6314186;22;20587;-84
2024/04/24 08:27:58;;;;;;;;;;;;;;;;;;;;;
2024/04/24 08:30:37;;;;;;;3.67;1.38;;;18.90;49.40;;;;;;6352177;22;20224;-84
2024/04/24 08:33:08;;;;;;;5.10;1.35;;;18.80;49.70;;;;;;6314887;22;20220;-84
2024/04/24 08:35:36;;;;;;;2.70;1.17;;;18.90;49.70;;;;;;6309940;22;20547;-83
2024/04/24 08:38:05;;;;;;;3.45;1.30;;;18.90;49.20;;;;;;6309102;22;20224;-84
2024/04/24 08:40:32;;;;;;;2.88;1.30;;;18.90;49.40;;;;;;6350146;22;20707;-84
2024/04/24 08:43:28;;;;;;;2.67;1.40;;;18.90;49.30;;;;;;6308458;22;20311;-83
2024/04/24 08:46:20;;;;;;;5.32;1.40;;;19.00;49.50;;;;;;6278134;22;20222;-85
2024/04/24 08:49:32;;;;;;;5.35;1.38;;;18.90;49.50;;;;;;6157557;23;20310;-84
2024/04/24 08:52:11;;;;;;;7.40;1.83;;;18.90;48.90;;;;;;6284859;22;20293;-84
2024/04/24 08:54:46;;;;;;;11.40;1.65;;;18.90;49.60;;;;;;6181693;22;20227;-83
2024/04/24 08:57:55;;;;;;;3.33;1.20;;;18.90;49.60;;;;;;6257280;22;20222;-83
2024/04/24 09:00:50;;;;;;;10.25;1.85;;;18.90;49.60;;;;;;6251481;22;20651;-83
2024/04/24 09:03:21;;;;;;;6.70;1.27;;;18.80;49.80;;;;;;6259595;22;20261;-83
2024/04/24 09:05:57;;;;;;;5.22;1.80;;;18.90;49.60;;;;;;6246330;22;20235;-84
2024/04/24 09:08:26;;;;;;;6.70;1.67;;;18.90;50.00;;;;;;6191967;23;20333;-83
2024/04/24 09:10:52;;;;;;;11.88;1.90;;;18.90;49.40;;;;;;6231413;23;20221;-83
2024/04/24 09:13:23;;;;;;;9.40;1.63;;;18.90;49.60;;;;;;6192063;23;20855;-83
2024/04/24 09:16:18;;;;;;;3.75;1.50;;;18.90;49.20;;;;;;6229838;23;20288;-86
2024/04/24 09:19:00;;;;;;;9.85;1.48;;;19.00;49.00;;;;;;6192677;23;20317;-83
2024/04/24 09:21:40;;;;;;;;;;;;;;;;;;;;;
2024/04/24 09:24:10;;;;;;;6.00;1.40;;;18.90;49.40;;;;;;6227524;23;20236;-84
2024/04/24 09:26:38;;;;;;;5.35;1.30;;;18.90;49.70;;;;;;6414195;22;20230;-83
2024/04/24 09:29:09;;;;;;;8.43;1.98;;;19.00;49.30;;;;;;6324563;22;20222;-84
2024/04/24 09:31:38;;;;;;;4.63;1.20;;;19.00;49.60;;;;;;6283726;22;20264;-83
2024/04/24 09:34:06;;;;;;;3.92;1.38;;;18.90;49.90;;;;;;6284169;22;20266;-83
2024/04/24 09:36:51;;;;;;;3.13;1.27;;;18.90;49.60;;;;;;6244661;22;20342;-84
2024/04/24 09:39:17;;;;;;;5.13;1.25;;;18.80;50.10;;;;;;6225921;22;20287;-83
2024/04/24 09:41:45;;;;;;;5.63;1.60;;;18.90;49.70;;;;;;6197842;22;20224;-83
2024/04/24 09:44:12;;;;;;;5.40;1.10;;;18.80;49.60;;;;;;6199468;22;20278;-83
2024/04/24 09:50:25;;;;;;;4.78;1.40;;;18.90;49.50;;;;;;6044806;23;20716;-84
2024/04/24 09:52:58;;;;;;;4.43;1.33;;;18.90;49.10;;;;;;5971901;23;20232;-83
2024/04/24 09:55:24;;;;;;;2.75;1.42;;;18.90;49.50;;;;;;5973785;23;20273;-84
2024/04/24 09:57:50;;;;;;;4.10;1.15;;;19.00;49.60;;;;;;5972431;23;20394;-83
2024/04/24 10:00:18;;;;;;;4.10;1.25;;;18.90;49.40;;;;;;5979679;23;20243;-83
2024/04/24 10:02:44;;;;;;;3.03;1.30;;;18.80;49.60;;;;;;6096763;23;20231;-83
2024/04/24 10:05:32;;;;;;;4.68;1.25;;;18.80;49.70;;;;;;6093587;23;20232;-83
2024/04/24 10:08:02;;;;;;;2.53;0.98;;;18.80;49.70;;;;;;6127435;23;20269;-83
2024/04/24 10:10:34;;;;;;;2.60;1.23;;;18.80;49.60;;;;;;6089744;23;20223;-83
2024/04/24 10:13:01;;;;;;;4.28;1.13;;;18.90;49.20;;;;;;6053608;23;20247;-83
2024/04/24 10:15:26;;;;;;;3.30;1.40;;;18.80;49.10;;;;;;6090661;23;20275;-82
2024/04/24 10:18:07;;;;;;;3.65;1.20;;;18.90;48.90;;;;;;6092410;23;20324;-85
2024/04/24 10:20:33;;;;;;;3.42;1.23;;;18.80;49.20;;;;;;6090343;23;20263;-82
2024/04/24 10:23:02;;;;;;;3.40;1.30;;;18.90;49.10;;;;;;6090363;23;20251;-84
2024/04/24 10:25:27;;;;;;;1.42;1.20;;;18.90;48.70;;;;;;6114643;22;20252;-84
2024/04/24 10:27:55;;;;;;;2.25;1.20;;;18.90;48.60;;;;;;6374410;22;20217;-83
2024/04/24 10:30:25;;;;;;;1.48;1.10;;;18.90;48.50;;;;;;6335051;22;20228;-83
2024/04/24 10:32:51;;;;;;;3.15;1.40;;;18.90;48.50;;;;;;6333260;22;20655;-83
2024/04/24 10:35:19;;;;;;;2.90;1.20;;;18.90;48.90;;;;;;6405020;22;20268;-83
2024/04/24 10:37:52;;;;;;;1.85;0.90;;;18.80;49.10;;;;;;6442286;22;20674;-83
2024/04/24 10:40:18;;;;;;;2.55;1.13;;;18.80;48.60;;;;;;6471071;22;20230;-83
2024/04/24 10:42:46;;;;;;;1.73;1.48;;;18.80;48.30;;;;;;6526433;22;20256;-83
2024/04/24 10:45:15;;;;;;;3.95;1.38;;;18.80;49.20;;;;;;6443062;22;20260;-83
2024/04/24 10:47:41;;;;;;;4.30;1.33;;;18.80;48.90;;;;;;6526486;22;20218;-83
2024/04/24 10:50:13;;;;;;;1.70;0.93;;;18.70;49.00;;;;;;6526282;22;20331;-84
2024/04/24 10:52:55;;;;;;;2.30;1.20;;;18.80;48.90;;;;;;6484257;22;20328;-83
2024/04/24 10:55:21;;;;;;;5.85;1.35;;;18.80;49.70;;;;;;6443009;22;20226;-83
2024/04/24 10:57:47;;;;;;;1.35;1.00;;;18.80;48.60;;;;;;6483717;22;20222;-84
2024/04/24 11:00:16;;;;;;;3.92;1.00;;;18.80;49.00;;;;;;6528658;21;20283;-83
2024/04/24 11:02:44;;;;;;;2.67;0.80;;;18.80;49.00;;;;;;6442293;22;20662;-84
2024/04/24 11:05:10;;;;;;;3.17;1.00;;;18.80;49.10;;;;;;6442538;22;20225;-83
2024/04/24 11:07:36;;;;;;;2.53;0.95;;;18.70;49.10;;;;;;6484237;22;20261;-83
2024/04/24 11:10:03;;;;;;;3.67;1.20;;;18.70;49.30;;;;;;6484015;22;20214;-83
2024/04/24 11:12:29;;;;;;;2.88;1.10;;;18.80;49.30;;;;;;6441586;22;20226;-83
2024/04/24 11:14:55;;;;;;;2.42;1.10;;;18.70;48.90;;;;;;6526164;22;20278;-83
2024/04/24 11:17:24;;;;;;;2.03;1.30;;;18.70;48.70;;;;;;6526319;22;20261;-84
2024/04/24 11:19:50;;;;;;;1.17;1.00;;;18.80;48.90;;;;;;6483544;22;20218;-83
2024/04/24 11:22:26;;;;;;;3.28;1.10;;;18.80;48.70;;;;;;6525826;22;20222;-83
2024/04/24 11:24:55;;;;;;;1.40;0.85;;;18.80;48.30;;;;;;6484540;22;20218;-83
2024/04/24 11:27:24;;;;;;;2.65;1.00;;;18.80;48.60;;;;;;6529594;21;20260;-83
2024/04/24 11:29:50;;;;;;;1.83;0.98;;;18.80;48.40;;;;;;6527152;22;20236;-84
2024/04/24 11:32:16;;;;;;;1.52;0.90;;;18.80;48.30;;;;;;6484943;22;20218;-83
2024/04/24 11:34:42;;;;;;;2.20;1.00;;;18.80;48.10;;;;;;6484661;22;20275;-84
2024/04/24 11:37:08;;;;;;;2.20;0.90;;;18.80;48.00;;;;;;6484076;22;20307;-84
2024/04/24 11:39:33;;;;;;;3.28;1.17;;;18.80;48.50;;;;;;6483466;22;20222;-83
2024/04/24 11:41:59;;;;;;;2.90;1.08;;;18.70;48.30;;;;;;6441030;22;20226;-84
2024/04/24 11:44:25;;;;;;;1.13;0.90;;;18.70;48.60;;;;;;6483303;22;20281;-84
2024/04/24 11:46:53;;;;;;;1.80;1.02;;;18.70;48.40;;;;;;6442177;22;20580;-83
2024/04/24 11:49:23;;;;;;;1.50;1.13;;;18.70;48.30;;;;;;6483733;22;20256;-83
2024/04/24 11:51:49;;;;;;;3.38;1.10;;;18.70;48.20;;;;;;6528809;22;20674;-83
2024/04/24 11:54:15;;;;;;;2.80;1.02;;;18.80;48.30;;;;;;6443542;22;20233;-83
2024/04/24 11:56:42;;;;;;;1.65;1.00;;;18.70;47.80;;;;;;6442349;22;20328;-83
2024/04/24 11:59:09;;;;;;;1.27;1.15;;;18.80;48.60;;;;;;6483684;22;20218;-83
2024/04/24 12:01:36;;;;;;;1.42;0.98;;;18.70;48.30;;;;;;6440653;22;20415;-83
2024/04/24 12:04:03;;;;;;;0.95;0.90;;;18.70;48.10;;;;;;6483364;22;20265;-84
2024/04/24 12:06:39;;;;;;;0.98;0.90;;;18.70;48.30;;;;;;6483383;22;20241;-83
2024/04/24 12:09:07;;;;;;;1.30;1.20;;;18.80;48.00;;;;;;6525637;22;20226;-83
2024/04/24 12:11:41;;;;;;;1.55;1.10;;;18.80;48.00;;;;;;6526112;22;20671;-83
2024/04/24 12:14:06;;;;;;;1.00;0.90;;;18.70;48.40;;;;;;6441411;22;20230;-83
2024/04/24 12:16:33;;;;;;;1.17;1.00;;;18.80;48.20;;;;;;6482844;22;20324;-83
2024/04/24 12:19:00;;;;;;;1.10;1.00;;;18.70;48.10;;;;;;6483495;22;20320;-83
2024/04/24 12:21:27;;;;;;;0.93;0.77;;;18.70;48.30;;;;;;6441417;22;20222;-83
2024/04/24 12:23:52;;;;;;;1.88;1.00;;;18.80;48.10;;;;;;6398608;22;20292;-83
2024/04/24 12:26:19;;;;;;;1.50;1.00;;;18.80;48.30;;;;;;6526838;22;20210;-83
2024/04/24 12:28:53;;;;;;;1.33;0.80;;;18.70;48.60;;;;;;6526345;22;20269;-83
2024/04/24 12:31:19;;;;;;;1.08;0.98;;;18.70;48.30;;;;;;6526502;22;20222;-83
2024/04/24 12:33:54;;;;;;;1.58;1.10;;;18.70;47.80;;;;;;6526277;22;20344;-83
2024/04/24 12:36:20;;;;;;;1.42;1.10;;;18.80;48.20;;;;;;6488861;22;20329;-84
2024/04/24 12:38:46;;;;;;;1.38;0.90;;;18.70;48.00;;;;;;6449000;21;20230;-83
2024/04/24 12:41:11;;;;;;;3.72;0.85;;;18.70;48.00;;;;;;6537120;21;20567;-83
2024/04/24 12:43:37;;;;;;;3.10;1.17;;;18.70;47.90;;;;;;6454803;21;20314;-83
2024/04/24 12:46:06;;;;;;;3.75;1.00;;;18.70;48.50;;;;;;6538937;21;20222;-84
2024/04/24 12:48:32;;;;;;;2.58;1.10;;;18.70;48.10;;;;;;6453363;21;20307;-84
2024/04/24 12:51:05;;;;;;;2.35;1.10;;;18.70;48.70;;;;;;6454005;21;20551;-83
2024/04/24 12:53:31;;;;;;;3.65;1.00;;;18.80;48.10;;;;;;6416137;21;20213;-83
2024/04/24 12:55:57;;;;;;;1.52;1.00;;;18.70;48.10;;;;;;6496451;21;20308;-83
2024/04/24 12:58:23;;;;;;;1.88;1.00;;;18.70;48.30;;;;;;6454305;21;20553;-83
2024/04/24 13:00:52;;;;;;;1.10;0.98;;;18.70;48.10;;;;;;6540149;21;20566;-83
2024/04/24 13:03:19;;;;;;;1.63;1.08;;;18.70;48.10;;;;;;6499920;21;20209;-83
2024/04/24 13:05:45;;;;;;;2.33;1.20;;;18.70;48.30;;;;;;6497482;21;20260;-83
2024/04/24 13:08:11;;;;;;;1.23;0.95;;;18.80;48.10;;;;;;6540173;21;20213;-82
2024/04/24 13:10:37;;;;;;;1.27;0.95;;;18.80;47.80;;;;;;6455940;21;20221;-84
2024/04/24 13:13:06;;;;;;;2.40;1.17;;;18.80;47.70;;;;;;6453492;21;20236;-83
2024/04/24 13:15:34;;;;;;;1.80;1.00;;;18.80;47.60;;;;;;6370068;21;20281;-83
2024/04/24 13:18:02;;;;;;;2.72;1.00;;;18.80;47.90;;;;;;6499019;21;20664;-83
2024/04/24 13:20:33;;;;;;;0.93;0.90;;;18.80;47.90;;;;;;6586348;21;20209;-84
2024/04/24 13:22:59;;;;;;;1.10;0.80;;;18.90;48.10;;;;;;6412415;21;20276;-84
2024/04/24 13:25:25;;;;;;;1.85;0.93;;;18.90;47.10;;;;;;6539882;21;20302;-83
2024/04/24 13:27:51;;;;;;;0.90;0.90;;;18.90;47.50;;;;;;6539385;21;20225;-84
2024/04/24 13:30:20;;;;;;;1.23;1.10;;;18.90;47.20;;;;;;6496838;21;20217;-83
2024/04/24 13:32:48;;;;;;;1.65;0.90;;;18.80;47.60;;;;;;6500234;21;20221;-83
2024/04/24 13:35:16;;;;;;;1.27;0.90;;;18.90;47.80;;;;;;6541444;21;20305;-83
2024/04/24 13:37:42;;;;;;;3.00;1.25;;;18.80;47.90;;;;;;6499790;21;20649;-82
2024/04/24 13:40:08;;;;;;;1.45;0.90;;;18.80;47.60;;;;;;6540665;21;20275;-82
2024/04/24 13:42:34;;;;;;;2.25;0.90;;;18.90;47.90;;;;;;6498165;21;20209;-84
2024/04/24 13:45:05;;;;;;;1.40;1.00;;;18.80;47.60;;;;;;6453871;21;20260;-83
2024/04/24 13:47:32;;;;;;;1.48;0.90;;;18.90;47.70;;;;;;6453791;21;20307;-84
2024/04/24 13:49:58;;;;;;;1.88;0.70;;;18.90;47.40;;;;;;6455685;21;20272;-85
2024/04/24 13:52:36;;;;;;;1.20;1.00;;;18.80;47.30;;;;;;6499718;21;20213;-84
2024/04/24 13:55:03;;;;;;;1.38;0.90;;;18.90;47.10;;;;;;6460562;21;20221;-84
2024/04/24 13:57:29;;;;;;;1.70;0.80;;;19.00;47.20;;;;;;6497742;21;20220;-83
2024/04/24 13:59:55;;;;;;;2.92;0.90;;;18.90;47.80;;;;;;6454286;21;20311;-83
2024/04/24 14:02:22;;;;;;;3.60;0.90;;;18.80;48.70;;;;;;6454578;21;20225;-84
2024/04/24 14:05:06;;;;;;;2.53;0.90;;;18.80;47.90;;;;;;6453246;21;20217;-82
2024/04/24 14:07:32;;;;;;;6.15;1.10;;;18.70;47.90;;;;;;6510597;21;20217;-84
2024/04/24 14:10:01;;;;;;;2.33;1.10;;;18.70;48.30;;;;;;6497759;21;20259;-83
2024/04/24 14:12:27;;;;;;;3.00;1.15;;;18.60;48.20;;;;;;6496266;21;20544;-83
2024/04/24 14:14:53;;;;;;;1.42;1.15;;;18.70;48.20;;;;;;6496168;21;20255;-82
2024/04/24 14:17:26;;;;;;;2.35;0.85;;;18.70;48.40;;;;;;6538540;21;20213;-83
2024/04/24 14:19:54;;;;;;;1.83;0.90;;;18.70;48.30;;;;;;6498152;21;20672;-83
2024/04/24 14:22:20;;;;;;;6.70;1.13;;;18.60;48.50;;;;;;6498152;21;20232;-84
2024/04/24 14:24:46;;;;;;;1.10;0.98;;;18.60;48.30;;;;;;6452583;21;20256;-83
2024/04/24 14:27:12;;;;;;;2.72;1.10;;;18.60;48.10;;;;;;6493430;21;20273;-83
2024/04/24 14:29:38;;;;;;;3.63;1.25;;;18.70;48.00;;;;;;6492837;21;20243;-83